map of FFD home
FFD - Airport
Location
City:  Fairford, Gloucestershire, England, United Kingdom
Name:RAF Fairford
ICAO:EGVA
IATA:FFD

Details
Type:Airport (Aerodrome, Airfield)
Use:Military, International (customs port of entry)
Latitude:5140'56"N (51.682167)
Longitude:147'24"W (-1.790027)
Datum:WGS 1984
Elevation:286 ft (87 m)
Variation:0.94W (WMM2015 magnetic declination)
0.15 annual change
Runways:1
Longest:9994 × 200 ft (3046 × 61 m), paved

Time
Time Zone:UTC+0 (DST+1)
Local Time:

Weather
METAR:EGVA 181556Z AUTO 23014G23KT 9999 BKN026 OVC036 20/15 A2981 RMK AO2 RAE00DZB00E04 CIG 026V034 SLP096 P0000 T01950145 $

Related Locations
Nearby:
Farthest:NZBA: 11897 mi / 19146 km
Balclutha, OTA, NZ

Find:

   beyond  
but within

Other Information
Maps:
NOTAMs:
Links:
Sources:

  
  • flag of United Kingdom
  • flag of England
  • flag of Royal Air Force
  

Airport Diagram

Airport diagram for FFD

Larger airport diagram (OBSOLETE) from NGA

Sectional Chart

Flight Planning
at skyvector.com

Satellite Image

Google Maps Satellite view

 

Copyright © 2004-2018 Karl L. Swartz. All rights reserved.
The Great Circle Mapper name and logo are trademarks of the Great Circle Mapper.
All other trademarks mentioned herein belong to their respective owners.
Please see credits for attibutions and further copyright information.

  Follow gcmap on Facebook Follow gcmap on Twitter Follow gcmap on Google+ GCmap on LinkedIn

hCard Microformat

Geo Microformat